UAL563 KJFK-KBOS
Flight info
| Callsign | UAL563 |
|---|---|
| Flight time | 0h 39m |
| Altitude | 21000 |
| Route | MERIT ROBUC3 |
| Aircraft | A320/M-SDE3FGHIRWY/LB1 |
Departure
| Time | 2026-05-07 23:49 |
|---|---|
| Airport | John F. Kennedy International Airport (KJFK) |
Arrival
| Time | 2026-05-08 00:29 |
|---|---|
| Airport | Boston Logan International Airport (KBOS) |
| Time | Latitude | Longitude | Altitude | Speed | Heading |
|---|---|---|---|---|---|
| 2026-05-07 23:22 | 40.63955 | -73.78063 | 21 ft | 0 kts | 268° |
| 2026-05-07 23:34 | 40.63955 | -73.78062 | 21 ft | 0 kts | 268° |
| 2026-05-07 23:40 | 40.63955 | -73.78058 | 20 ft | 3 kts | 268° |
| 2026-05-07 23:40 | 40.63957 | -73.78025 | 22 ft | 4 kts | 268° |
| 2026-05-07 23:40 | 40.63958 | -73.77993 | 24 ft | 4 kts | 259° |
| 2026-05-07 23:41 | 40.63965 | -73.77962 | 23 ft | 4 kts | 231° |
| 2026-05-07 23:41 | 40.63981 | -73.77948 | 21 ft | 1 kts | 173° |
| 2026-05-07 23:41 | 40.63982 | -73.77948 | 22 ft | 1 kts | 173° |
| 2026-05-07 23:43 | 40.63979 | -73.77947 | 21 ft | 2 kts | 173° |
| 2026-05-07 23:43 | 40.63977 | -73.77947 | 21 ft | 0 kts | 173° |
| 2026-05-07 23:44 | 40.63970 | -73.77946 | 23 ft | 6 kts | 173° |
| 2026-05-07 23:44 | 40.63890 | -73.77933 | 20 ft | 15 kts | 173° |
| 2026-05-07 23:44 | 40.63780 | -73.77914 | 20 ft | 17 kts | 173° |
| 2026-05-07 23:45 | 40.63657 | -73.77894 | 20 ft | 19 kts | 173° |
| 2026-05-07 23:45 | 40.63575 | -73.77860 | 20 ft | 2 kts | 143° |
| 2026-05-07 23:45 | 40.63540 | -73.77818 | 20 ft | 10 kts | 163° |
| 2026-05-07 23:45 | 40.63473 | -73.77858 | 21 ft | 14 kts | 204° |
| 2026-05-07 23:46 | 40.63394 | -73.77913 | 21 ft | 12 kts | 202° |
| 2026-05-07 23:46 | 40.63335 | -73.77849 | 24 ft | 13 kts | 120° |
| 2026-05-07 23:46 | 40.63276 | -73.77732 | 24 ft | 24 kts | 120° |
| 2026-05-07 23:46 | 40.63161 | -73.77463 | 22 ft | 43 kts | 120° |
| 2026-05-07 23:47 | 40.63023 | -73.77176 | 21 ft | 13 kts | 122° |
| 2026-05-07 23:47 | 40.62963 | -73.77097 | 21 ft | 13 kts | 181° |
| 2026-05-07 23:47 | 40.62888 | -73.77133 | 22 ft | 0 kts | 213° |
| 2026-05-07 23:48 | 40.62888 | -73.77134 | 22 ft | 1 kts | 213° |
| 2026-05-07 23:48 | 40.62828 | -73.77195 | 24 ft | 17 kts | 242° |
| 2026-05-07 23:48 | 40.62875 | -73.77346 | 23 ft | 27 kts | 301° |
| 2026-05-07 23:49 | 40.63103 | -73.77823 | 26 ft | 94 kts | 300° |
| 2026-05-07 23:49 | 40.63522 | -73.78770 | 25 ft | 144 kts | 300° |
| 2026-05-07 23:49 | 40.64066 | -73.80046 | 267 ft | 166 kts | 299° |
| 2026-05-07 23:49 | 40.64585 | -73.81453 | 772 ft | 179 kts | 290° |
| 2026-05-07 23:50 | 40.64581 | -73.83137 | 1351 ft | 194 kts | 250° |
| 2026-05-07 23:50 | 40.63750 | -73.84552 | 1994 ft | 204 kts | 218° |
| 2026-05-07 23:50 | 40.62496 | -73.85635 | 2338 ft | 223 kts | 216° |
| 2026-05-07 23:50 | 40.61209 | -73.86876 | 2882 ft | 236 kts | 220° |
| 2026-05-07 23:51 | 40.59802 | -73.87944 | 3830 ft | 230 kts | 198° |
| 2026-05-07 23:51 | 40.58235 | -73.88150 | 4711 ft | 232 kts | 173° |
| 2026-05-07 23:51 | 40.56700 | -73.87393 | 5307 ft | 245 kts | 148° |
| 2026-05-07 23:51 | 40.55307 | -73.86003 | 5942 ft | 259 kts | 145° |
| 2026-05-07 23:52 | 40.53649 | -73.84907 | 6445 ft | 276 kts | 167° |
| 2026-05-07 23:52 | 40.51727 | -73.84558 | 7183 ft | 282 kts | 174° |
| 2026-05-07 23:52 | 40.49893 | -73.83587 | 7983 ft | 294 kts | 143° |
| 2026-05-07 23:52 | 40.48652 | -73.81422 | 8731 ft | 305 kts | 111° |
| 2026-05-07 23:53 | 40.48401 | -73.78646 | 9445 ft | 312 kts | 78° |
| 2026-05-07 23:53 | 40.49238 | -73.76048 | 10072 ft | 313 kts | 47° |
| 2026-05-07 23:53 | 40.50946 | -73.74260 | 10331 ft | 320 kts | 16° |
| 2026-05-07 23:53 | 40.53139 | -73.73798 | 10534 ft | 324 kts | 347° |
| 2026-05-07 23:54 | 40.55385 | -73.74353 | 10951 ft | 333 kts | 342° |
| 2026-05-07 23:54 | 40.57721 | -73.74753 | 11549 ft | 348 kts | 353° |
| 2026-05-07 23:54 | 40.60176 | -73.74289 | 12171 ft | 367 kts | 11° |
| 2026-05-07 23:54 | 40.62539 | -73.72838 | 12766 ft | 384 kts | 25° |
| 2026-05-07 23:55 | 40.64802 | -73.71038 | 12966 ft | 388 kts | 25° |
| 2026-05-07 23:55 | 40.67132 | -73.69206 | 13006 ft | 389 kts | 25° |
| 2026-05-07 23:55 | 40.69461 | -73.67395 | 13010 ft | 389 kts | 25° |
| 2026-05-07 23:55 | 40.71787 | -73.65601 | 13008 ft | 388 kts | 25° |
| 2026-05-07 23:56 | 40.74154 | -73.63781 | 13010 ft | 388 kts | 25° |
| 2026-05-07 23:56 | 40.76475 | -73.61999 | 13545 ft | 392 kts | 24° |
| 2026-05-07 23:56 | 40.78850 | -73.60173 | 14169 ft | 397 kts | 24° |
| 2026-05-07 23:56 | 40.81245 | -73.58324 | 14760 ft | 401 kts | 25° |
| 2026-05-07 23:57 | 40.83667 | -73.56449 | 15336 ft | 406 kts | 25° |
| 2026-05-07 23:57 | 40.86113 | -73.54556 | 15896 ft | 411 kts | 25° |
| 2026-05-07 23:57 | 40.88592 | -73.52632 | 16441 ft | 416 kts | 25° |
| 2026-05-07 23:57 | 40.91109 | -73.50672 | 17009 ft | 421 kts | 25° |
| 2026-05-07 23:58 | 40.93644 | -73.48694 | 17569 ft | 426 kts | 25° |
| 2026-05-07 23:58 | 40.96213 | -73.46688 | 18111 ft | 432 kts | 25° |
| 2026-05-07 23:58 | 40.98817 | -73.44659 | 18617 ft | 436 kts | 25° |
| 2026-05-07 23:58 | 41.01443 | -73.42614 | 19183 ft | 440 kts | 25° |
| 2026-05-07 23:59 | 41.04091 | -73.40552 | 19745 ft | 443 kts | 25° |
| 2026-05-07 23:59 | 41.06747 | -73.38482 | 20322 ft | 447 kts | 25° |
| 2026-05-07 23:59 | 41.09338 | -73.36131 | 20737 ft | 457 kts | 37° |
| 2026-05-07 23:59 | 41.11441 | -73.32911 | 20851 ft | 465 kts | 57° |
| 2026-05-08 00:00 | 41.12868 | -73.29065 | 20869 ft | 466 kts | 66° |
| 2026-05-08 00:00 | 41.14165 | -73.25124 | 20867 ft | 466 kts | 66° |
| 2026-05-08 00:00 | 41.15453 | -73.21187 | 20868 ft | 466 kts | 66° |
| 2026-05-08 00:00 | 41.16750 | -73.17236 | 20868 ft | 466 kts | 66° |
| 2026-05-08 00:01 | 41.18048 | -73.13303 | 20868 ft | 466 kts | 66° |
| 2026-05-08 00:01 | 41.19352 | -73.09362 | 20872 ft | 466 kts | 66° |
| 2026-05-08 00:01 | 41.20661 | -73.05416 | 20867 ft | 466 kts | 66° |
| 2026-05-08 00:01 | 41.21966 | -73.01473 | 20867 ft | 466 kts | 66° |
| 2026-05-08 00:02 | 41.23267 | -72.97532 | 20866 ft | 466 kts | 66° |
| 2026-05-08 00:02 | 41.24566 | -72.93589 | 20871 ft | 466 kts | 66° |
| 2026-05-08 00:02 | 41.25868 | -72.89637 | 20863 ft | 466 kts | 66° |
| 2026-05-08 00:02 | 41.27166 | -72.85691 | 20871 ft | 467 kts | 66° |
| 2026-05-08 00:03 | 41.28464 | -72.81732 | 20875 ft | 467 kts | 66° |
| 2026-05-08 00:03 | 41.29741 | -72.77822 | 20863 ft | 467 kts | 66° |
| 2026-05-08 00:03 | 41.31030 | -72.73863 | 20870 ft | 467 kts | 67° |
| 2026-05-08 00:03 | 41.32317 | -72.69888 | 20862 ft | 467 kts | 67° |
| 2026-05-08 00:04 | 41.33602 | -72.65924 | 20867 ft | 467 kts | 67° |
| 2026-05-08 00:04 | 41.34892 | -72.61963 | 20869 ft | 467 kts | 66° |
| 2026-05-08 00:04 | 41.36182 | -72.57999 | 20869 ft | 467 kts | 66° |
| 2026-05-08 00:04 | 41.37470 | -72.54032 | 20868 ft | 467 kts | 67° |
| 2026-05-08 00:05 | 41.38758 | -72.50062 | 20867 ft | 467 kts | 67° |
| 2026-05-08 00:05 | 41.40044 | -72.46085 | 20869 ft | 467 kts | 67° |
| 2026-05-08 00:05 | 41.41329 | -72.42108 | 20869 ft | 467 kts | 67° |
| 2026-05-08 00:05 | 41.42615 | -72.38126 | 20869 ft | 468 kts | 67° |
| 2026-05-08 00:06 | 41.43897 | -72.34147 | 20864 ft | 468 kts | 67° |
| 2026-05-08 00:06 | 41.45176 | -72.30160 | 20861 ft | 468 kts | 67° |
| 2026-05-08 00:06 | 41.46455 | -72.26173 | 20858 ft | 468 kts | 67° |
| 2026-05-08 00:06 | 41.47733 | -72.22186 | 20848 ft | 468 kts | 67° |
| 2026-05-08 00:07 | 41.49011 | -72.18186 | 20847 ft | 468 kts | 68° |
| 2026-05-08 00:07 | 41.50284 | -72.14199 | 20848 ft | 468 kts | 67° |
| 2026-05-08 00:07 | 41.51556 | -72.10209 | 20755 ft | 464 kts | 68° |
| 2026-05-08 00:07 | 41.52807 | -72.06287 | 20500 ft | 457 kts | 68° |
| 2026-05-08 00:08 | 41.54073 | -72.02313 | 20262 ft | 479 kts | 68° |
| 2026-05-08 00:08 | 41.55406 | -71.98111 | 20005 ft | 498 kts | 68° |
| 2026-05-08 00:08 | 41.56765 | -71.93827 | 19758 ft | 502 kts | 68° |
| 2026-05-08 00:08 | 41.58129 | -71.89533 | 19514 ft | 502 kts | 68° |
| 2026-05-08 00:09 | 41.59500 | -71.85210 | 19271 ft | 514 kts | 68° |
| 2026-05-08 00:09 | 41.60904 | -71.80768 | 19023 ft | 523 kts | 68° |
| 2026-05-08 00:09 | 41.62327 | -71.76271 | 18782 ft | 526 kts | 68° |
| 2026-05-08 00:09 | 41.63749 | -71.71769 | 18548 ft | 525 kts | 68° |
| 2026-05-08 00:10 | 41.65136 | -71.67363 | 18308 ft | 505 kts | 68° |
| 2026-05-08 00:10 | 41.66471 | -71.63109 | 18066 ft | 487 kts | 68° |
| 2026-05-08 00:10 | 41.67630 | -71.59399 | 17813 ft | 467 kts | 68° |
| 2026-05-08 00:10 | 41.68840 | -71.55465 | 17539 ft | 441 kts | 69° |
| 2026-05-08 00:11 | 41.69917 | -71.51835 | 17274 ft | 417 kts | 70° |
| 2026-05-08 00:11 | 41.70960 | -71.48227 | 17009 ft | 403 kts | 70° |
| 2026-05-08 00:11 | 41.71955 | -71.44748 | 16757 ft | 399 kts | 69° |
| 2026-05-08 00:11 | 41.73131 | -71.41419 | 16450 ft | 396 kts | 60° |
| 2026-05-08 00:12 | 41.74491 | -71.38201 | 15983 ft | 396 kts | 59° |
| 2026-05-08 00:12 | 41.75846 | -71.35018 | 15651 ft | 391 kts | 59° |
| 2026-05-08 00:12 | 41.77192 | -71.31869 | 15281 ft | 388 kts | 58° |
| 2026-05-08 00:12 | 41.78521 | -71.28767 | 14726 ft | 382 kts | 58° |
| 2026-05-08 00:13 | 41.79828 | -71.25718 | 14106 ft | 375 kts | 58° |
| 2026-05-08 00:13 | 41.81122 | -71.22700 | 13560 ft | 367 kts | 57° |
| 2026-05-08 00:13 | 41.82347 | -71.19829 | 13111 ft | 354 kts | 58° |
| 2026-05-08 00:13 | 41.83553 | -71.16991 | 12556 ft | 347 kts | 58° |
| 2026-05-08 00:14 | 41.84731 | -71.14210 | 12099 ft | 337 kts | 58° |
| 2026-05-08 00:14 | 41.85876 | -71.11507 | 11876 ft | 335 kts | 57° |
| 2026-05-08 00:14 | 41.87042 | -71.08796 | 11794 ft | 334 kts | 57° |
| 2026-05-08 00:14 | 41.88206 | -71.06110 | 11672 ft | 333 kts | 57° |
| 2026-05-08 00:15 | 41.89370 | -71.03435 | 11526 ft | 331 kts | 57° |
| 2026-05-08 00:15 | 41.90526 | -71.00779 | 11379 ft | 329 kts | 57° |
| 2026-05-08 00:15 | 41.91679 | -70.98121 | 11228 ft | 328 kts | 57° |
| 2026-05-08 00:15 | 41.92819 | -70.95475 | 11090 ft | 326 kts | 57° |
| 2026-05-08 00:16 | 41.93948 | -70.92846 | 10937 ft | 325 kts | 57° |
| 2026-05-08 00:16 | 41.95072 | -70.90221 | 10792 ft | 323 kts | 57° |
| 2026-05-08 00:16 | 41.96187 | -70.87612 | 10623 ft | 322 kts | 57° |
| 2026-05-08 00:16 | 41.97299 | -70.85010 | 10475 ft | 320 kts | 57° |
| 2026-05-08 00:17 | 41.98403 | -70.82427 | 10335 ft | 318 kts | 57° |
| 2026-05-08 00:17 | 41.99505 | -70.79853 | 10188 ft | 317 kts | 57° |
| 2026-05-08 00:17 | 42.00601 | -70.77307 | 10052 ft | 315 kts | 56° |
| 2026-05-08 00:17 | 42.01911 | -70.74970 | 9832 ft | 311 kts | 44° |
| 2026-05-08 00:18 | 42.03354 | -70.72814 | 9504 ft | 308 kts | 44° |
| 2026-05-08 00:18 | 42.04762 | -70.70714 | 9210 ft | 305 kts | 44° |
| 2026-05-08 00:18 | 42.06274 | -70.68770 | 8911 ft | 296 kts | 28° |
| 2026-05-08 00:18 | 42.08131 | -70.67820 | 8624 ft | 282 kts | 2° |
| 2026-05-08 00:19 | 42.10105 | -70.67669 | 8336 ft | 279 kts | 356° |
| 2026-05-08 00:19 | 42.12013 | -70.67647 | 8054 ft | 277 kts | 356° |
| 2026-05-08 00:19 | 42.13966 | -70.67650 | 7767 ft | 276 kts | 356° |
| 2026-05-08 00:19 | 42.15858 | -70.67666 | 7489 ft | 275 kts | 356° |
| 2026-05-08 00:20 | 42.17764 | -70.67695 | 7209 ft | 273 kts | 356° |
| 2026-05-08 00:20 | 42.19651 | -70.67736 | 6906 ft | 271 kts | 356° |
| 2026-05-08 00:20 | 42.21510 | -70.67784 | 6770 ft | 262 kts | 356° |
| 2026-05-08 00:20 | 42.23307 | -70.67833 | 6643 ft | 254 kts | 356° |
| 2026-05-08 00:21 | 42.25045 | -70.67882 | 6519 ft | 246 kts | 356° |
| 2026-05-08 00:21 | 42.26728 | -70.67930 | 6369 ft | 238 kts | 356° |
| 2026-05-08 00:21 | 42.28374 | -70.67980 | 6108 ft | 236 kts | 356° |
| 2026-05-08 00:21 | 42.30007 | -70.68032 | 5764 ft | 233 kts | 356° |
| 2026-05-08 00:22 | 42.31621 | -70.68080 | 5251 ft | 231 kts | 356° |
| 2026-05-08 00:22 | 42.32687 | -70.68108 | 4924 ft | 230 kts | 356° |
| 2026-05-08 00:22 | 42.34255 | -70.68144 | 4680 ft | 218 kts | 356° |
| 2026-05-08 00:22 | 42.35732 | -70.68168 | 4405 ft | 208 kts | 356° |
| 2026-05-08 00:23 | 42.37171 | -70.68187 | 3993 ft | 206 kts | 356° |
| 2026-05-08 00:23 | 42.38575 | -70.68368 | 3559 ft | 200 kts | 338° |
| 2026-05-08 00:23 | 42.39741 | -70.69289 | 3131 ft | 194 kts | 313° |
| 2026-05-08 00:23 | 42.40446 | -70.70806 | 2996 ft | 193 kts | 288° |
| 2026-05-08 00:24 | 42.40593 | -70.72617 | 3007 ft | 198 kts | 264° |
| 2026-05-08 00:24 | 42.40299 | -70.74434 | 2996 ft | 198 kts | 259° |
| 2026-05-08 00:24 | 42.39985 | -70.76207 | 2997 ft | 190 kts | 259° |
| 2026-05-08 00:24 | 42.39683 | -70.77931 | 2998 ft | 188 kts | 259° |
| 2026-05-08 00:25 | 42.39382 | -70.79648 | 2856 ft | 186 kts | 259° |
| 2026-05-08 00:25 | 42.39086 | -70.81340 | 2626 ft | 184 kts | 260° |
| 2026-05-08 00:25 | 42.38818 | -70.82873 | 2421 ft | 182 kts | 259° |
| 2026-05-08 00:25 | 42.38526 | -70.84539 | 2184 ft | 181 kts | 260° |
| 2026-05-08 00:26 | 42.38240 | -70.86165 | 1950 ft | 175 kts | 260° |
| 2026-05-08 00:26 | 42.37966 | -70.87723 | 1697 ft | 164 kts | 259° |
| 2026-05-08 00:26 | 42.37719 | -70.89119 | 1496 ft | 144 kts | 261° |
| 2026-05-08 00:26 | 42.37496 | -70.90388 | 1305 ft | 135 kts | 260° |
| 2026-05-08 00:27 | 42.37283 | -70.91604 | 1111 ft | 132 kts | 261° |
| 2026-05-08 00:27 | 42.37068 | -70.92808 | 948 ft | 132 kts | 258° |
| 2026-05-08 00:27 | 42.36856 | -70.94002 | 781 ft | 130 kts | 260° |
| 2026-05-08 00:27 | 42.36644 | -70.95201 | 618 ft | 133 kts | 259° |
| 2026-05-08 00:28 | 42.36433 | -70.96419 | 434 ft | 132 kts | 258° |
| 2026-05-08 00:28 | 42.36213 | -70.97618 | 246 ft | 133 kts | 258° |
| 2026-05-08 00:28 | 42.35994 | -70.98824 | 59 ft | 131 kts | 258° |
| 2026-05-08 00:28 | 42.35819 | -70.99923 | 19 ft | 92 kts | 257° |
| 2026-05-08 00:29 | 42.35753 | -71.00432 | 16 ft | 38 kts | 275° |
| 2026-05-08 00:29 | 42.35781 | -71.00655 | 12 ft | 16 kts | 279° |
| 2026-05-08 00:29 | 42.35788 | -71.00715 | 11 ft | 1 kts | 278° |
| 2026-05-08 00:29 | 42.35798 | -71.00804 | 12 ft | 22 kts | 279° |
| 2026-05-08 00:30 | 42.35819 | -71.01005 | 14 ft | 19 kts | 277° |
| 2026-05-08 00:30 | 42.35830 | -71.01110 | 17 ft | 0 kts | 279° |
| 2026-05-08 00:30 | 42.35832 | -71.01121 | 17 ft | 5 kts | 279° |
| 2026-05-08 00:30 | 42.35843 | -71.01218 | 19 ft | 14 kts | 277° |
| 2026-05-08 00:31 | 42.35856 | -71.01353 | 21 ft | 16 kts | 277° |
| 2026-05-08 00:31 | 42.35880 | -71.01515 | 23 ft | 2 kts | 283° |
| 2026-05-08 00:31 | 42.35880 | -71.01516 | 23 ft | 0 kts | 283° |
| 2026-05-08 00:32 | 42.35880 | -71.01518 | 23 ft | 1 kts | 283° |
| 2026-05-08 00:32 | 42.35884 | -71.01547 | 24 ft | 7 kts | 275° |
| 2026-05-08 00:32 | 42.35905 | -71.01618 | 25 ft | 9 kts | 324° |
| 2026-05-08 00:32 | 42.35975 | -71.01604 | 24 ft | 12 kts | 20° |
| 2026-05-08 00:33 | 42.36064 | -71.01561 | 22 ft | 4 kts | 19° |
| 2026-05-08 00:33 | 42.36098 | -71.01548 | 21 ft | 4 kts | 355° |
| 2026-05-08 00:33 | 42.36110 | -71.01597 | 20 ft | 8 kts | 285° |
| 2026-05-08 00:33 | 42.36126 | -71.01657 | 22 ft | 2 kts | 291° |
| 2026-05-08 00:34 | 42.36128 | -71.01663 | 22 ft | 0 kts | 291° |